Saint Louis, Missouri
Current Conditions -  °F | °C
As of 3:53 AM on Monday 22 Dec 2014 (Local Time) from KCPS Reporting Station
Overcast Overcast  
Wind Chill: 37°   Ceiling: 4200
Heat Index: 42°   Visibility: 10mi
Dew Point: 32°   Wind: 8mph
Humidity: 67%   Direction: 130°SE
Pressure: 29.85"   Gusts: NA
Location:  38.63°N, 90.24°W
Report Text: KCPS 220953Z AUTO 13007KT 10SM OVC042 06/00 A2985 RMK AO2 RAE08 SLP109 P0000 T00560000 TSNO
Loading
Personal Weather Stations






























Interactive Weather Map New forecast layout! Learn more

10-Day Weather Forecast

Advertisements
Track Severe Weather on mobile